createdAt,value
2023-06-11T00:00:25.236Z,73.43
2023-06-11T00:02:52.365Z,73.31
2023-06-11T00:05:19.516Z,72.77
2023-06-11T00:07:47.878Z,72.44
2023-06-11T00:10:15.035Z,72.81
2023-06-11T00:12:42.048Z,72.63
2023-06-11T00:15:09.595Z,72.24
2023-06-11T00:17:36.917Z,71.90
2023-06-11T00:20:04.605Z,72.50
2023-06-11T00:22:31.669Z,73.27
2023-06-11T00:25:00.163Z,74.75
2023-06-11T00:27:27.217Z,74.51
2023-06-11T00:29:55.095Z,74.09
2023-06-11T00:32:22.120Z,73.73
2023-06-11T00:34:49.103Z,72.79
2023-06-11T00:37:16.112Z,73.66
2023-06-11T00:39:43.135Z,73.92
2023-06-11T00:42:11.627Z,73.92
2023-06-11T00:44:38.587Z,74.93
2023-06-11T00:47:05.970Z,76.01
2023-06-11T00:49:33.213Z,75.43
2023-06-11T00:52:00.281Z,75.64
2023-06-11T00:54:27.303Z,74.69
2023-06-11T00:56:54.303Z,74.94
2023-06-11T00:59:22.668Z,75.20
2023-06-11T01:01:52.514Z,74.57
2023-06-11T01:04:20.393Z,76.16
2023-06-11T01:06:48.150Z,75.38
2023-06-11T01:09:15.392Z,76.16
2023-06-11T01:11:42.448Z,76.43
2023-06-11T01:14:09.446Z,76.10
2023-06-11T01:16:39.223Z,76.14
2023-06-11T01:19:19.444Z,75.38
2023-06-11T01:21:50.433Z,75.33
2023-06-11T01:24:19.641Z,75.00
2023-06-11T01:26:59.908Z,74.69
2023-06-11T01:29:28.662Z,74.19
2023-06-11T01:31:56.536Z,73.70
2023-06-11T01:34:23.677Z,73.75
2023-06-11T01:36:50.712Z,74.36
2023-06-11T01:39:18.018Z,74.04
2023-06-11T01:41:45.560Z,73.68
2023-06-11T01:44:13.196Z,73.00
2023-06-11T01:46:41.672Z,73.93
2023-06-11T01:49:08.665Z,73.99
2023-06-11T01:51:35.680Z,73.29
2023-06-11T01:54:02.653Z,73.31
2023-06-11T01:56:30.096Z,73.39
2023-06-11T01:58:57.287Z,73.97
2023-06-11T02:01:24.635Z,73.11
2023-06-11T02:03:53.205Z,72.73
2023-06-11T02:06:20.596Z,72.50
2023-06-11T02:08:47.880Z,74.12
2023-06-11T02:11:15.285Z,75.45
2023-06-11T02:13:42.593Z,74.85
2023-06-11T02:16:10.040Z,73.93
2023-06-11T02:18:37.452Z,73.13
2023-06-11T02:21:06.174Z,72.31
2023-06-11T02:23:33.683Z,71.87
2023-06-11T02:26:01.010Z,72.52
2023-06-11T02:28:28.522Z,72.54
2023-06-11T02:30:55.885Z,71.91
2023-06-11T02:33:23.430Z,71.95
2023-06-11T02:35:50.874Z,72.79
2023-06-11T02:38:19.566Z,72.28
2023-06-11T02:40:46.905Z,71.96
2023-06-11T02:43:14.389Z,72.21
2023-06-11T02:45:41.806Z,73.42
2023-06-11T02:48:09.467Z,73.57
2023-06-11T02:50:36.844Z,73.05
2023-06-11T02:53:04.221Z,72.68
2023-06-11T02:55:32.937Z,72.60
2023-06-11T02:58:00.449Z,72.13
2023-06-11T03:00:27.755Z,71.97
2023-06-11T03:02:55.176Z,71.88
2023-06-11T03:05:22.501Z,72.12
2023-06-11T03:07:50.037Z,73.29
2023-06-11T03:10:17.658Z,75.10
2023-06-11T03:12:46.565Z,75.10
2023-06-11T03:15:14.317Z,74.38
2023-06-11T03:17:41.826Z,73.39
2023-06-11T03:20:10.168Z,72.88
2023-06-11T03:22:37.506Z,72.94
2023-06-11T03:25:05.835Z,74.97
2023-06-11T03:27:33.255Z,75.88
2023-06-11T03:30:02.002Z,75.76
2023-06-11T03:32:29.400Z,75.05
2023-06-11T03:34:56.749Z,74.33
2023-06-11T03:37:24.229Z,73.70
2023-06-11T03:39:51.591Z,72.87
2023-06-11T03:42:18.990Z,72.50
2023-06-11T03:44:46.356Z,73.09
2023-06-11T03:47:15.209Z,72.75
2023-06-11T03:49:42.684Z,72.28
2023-06-11T03:52:10.207Z,72.24
2023-06-11T03:54:37.499Z,71.54
2023-06-11T03:57:05.298Z,71.69
2023-06-11T03:59:32.628Z,71.31
2023-06-11T04:02:00.831Z,71.48
2023-06-11T04:04:29.613Z,72.57
2023-06-11T04:06:57.187Z,72.46
2023-06-11T04:09:24.602Z,71.97
2023-06-11T04:11:51.955Z,72.19
2023-06-11T04:14:19.322Z,72.12
2023-06-11T04:16:47.007Z,71.85
2023-06-11T04:19:14.468Z,71.33
2023-06-11T04:21:43.187Z,71.10
2023-06-11T04:24:10.545Z,71.16
2023-06-11T04:26:37.895Z,71.31
2023-06-11T04:29:05.423Z,71.35
2023-06-11T04:31:32.806Z,71.83
2023-06-11T04:34:00.167Z,71.19
2023-06-11T04:36:27.521Z,70.87
2023-06-11T04:38:56.544Z,71.58
2023-06-11T04:41:23.979Z,71.84
2023-06-11T04:43:52.604Z,71.74
2023-06-11T04:46:20.106Z,71.92
2023-06-11T04:48:47.418Z,71.79
2023-06-11T04:51:14.751Z,71.76
2023-06-11T04:53:42.093Z,71.69
2023-06-11T04:56:10.892Z,71.15
2023-06-11T04:58:38.250Z,70.88
2023-06-11T05:01:05.633Z,71.16
2023-06-11T05:03:32.973Z,70.70
2023-06-11T05:06:00.631Z,70.35
2023-06-11T05:08:28.256Z,69.70
2023-06-11T05:10:56.429Z,69.52
2023-06-11T05:13:25.631Z,70.22
2023-06-11T05:15:53.824Z,69.84
2023-06-11T05:18:21.324Z,68.90
2023-06-11T05:20:48.840Z,68.60
2023-06-11T05:23:16.493Z,68.67
2023-06-11T05:25:44.032Z,68.88
2023-06-11T05:28:11.370Z,69.46
2023-06-11T05:30:40.268Z,68.74
2023-06-11T05:33:07.721Z,69.37
2023-06-11T05:35:35.189Z,69.47
2023-06-11T05:38:02.539Z,68.60
2023-06-11T05:40:30.099Z,68.20
2023-06-11T05:42:57.452Z,67.79
2023-06-11T05:45:24.968Z,66.17
2023-06-11T05:47:53.801Z,66.39
2023-06-11T05:50:21.409Z,66.25
2023-06-11T05:52:49.713Z,66.33
2023-06-11T05:55:17.487Z,65.78
2023-06-11T05:57:45.028Z,66.20
2023-06-11T06:00:12.845Z,66.08
2023-06-11T06:02:40.261Z,64.15
2023-06-11T06:05:09.861Z,62.46
2023-06-11T06:07:37.578Z,61.68
2023-06-11T06:10:05.827Z,62.27
2023-06-11T06:12:33.459Z,61.61
2023-06-11T06:15:00.813Z,60.46
2023-06-11T06:17:28.326Z,59.86
2023-06-11T06:19:55.804Z,58.21
2023-06-11T06:22:24.699Z,58.64
2023-06-11T06:24:52.427Z,57.48
2023-06-11T06:27:19.781Z,58.23
2023-06-11T06:29:47.195Z,58.61
2023-06-11T06:32:14.652Z,58.58
2023-06-11T06:34:42.519Z,57.47
2023-06-11T06:37:09.988Z,57.71
2023-06-11T06:39:38.728Z,57.73
2023-06-11T06:42:07.128Z,58.96
2023-06-11T06:44:34.551Z,59.22
2023-06-11T06:47:02.001Z,59.59
2023-06-11T06:49:29.492Z,59.02
2023-06-11T06:51:56.823Z,59.49
2023-06-11T06:54:24.404Z,59.55
2023-06-11T06:56:53.137Z,59.48
2023-06-11T06:59:20.438Z,61.09
2023-06-11T07:01:47.815Z,62.66
2023-06-11T07:04:15.244Z,62.77
2023-06-11T07:06:42.563Z,63.15
2023-06-11T07:09:09.967Z,62.34
2023-06-11T07:11:37.486Z,62.23
2023-06-11T07:14:06.429Z,62.05
2023-06-11T07:16:33.947Z,60.92
2023-06-11T07:19:01.432Z,62.29
2023-06-11T07:21:28.909Z,63.80
2023-06-11T07:23:56.463Z,64.21
2023-06-11T07:26:23.816Z,65.06
2023-06-11T07:28:51.175Z,64.85
2023-06-11T07:31:20.076Z,64.62
2023-06-11T07:33:47.482Z,64.00
2023-06-11T07:36:14.821Z,63.28
2023-06-11T07:38:42.154Z,62.73
2023-06-11T07:41:09.556Z,62.58
2023-06-11T07:43:37.152Z,62.69
2023-06-11T07:46:04.580Z,62.77
2023-06-11T07:48:33.351Z,62.12
2023-06-11T07:51:00.914Z,62.02
2023-06-11T07:53:28.269Z,60.47
2023-06-11T07:55:55.757Z,59.41
2023-06-11T07:58:23.196Z,61.31
2023-06-11T08:00:50.714Z,60.74
2023-06-11T08:03:18.456Z,59.30
2023-06-11T08:05:47.228Z,59.95
2023-06-11T08:08:14.665Z,58.53
2023-06-11T08:10:42.004Z,56.96
2023-06-11T08:13:09.375Z,56.59
2023-06-11T08:15:36.904Z,56.54
2023-06-11T08:18:04.399Z,54.89
2023-06-11T08:20:31.752Z,55.36
2023-06-11T08:23:00.504Z,55.34
2023-06-11T08:25:27.813Z,55.68
2023-06-11T08:27:55.434Z,55.92
2023-06-11T08:30:22.936Z,57.55
2023-06-11T08:32:50.367Z,57.26
2023-06-11T08:35:17.756Z,56.87
2023-06-11T08:37:46.652Z,58.21
2023-06-11T08:40:15.872Z,58.16
2023-06-11T08:42:43.436Z,58.92
2023-06-11T08:45:11.047Z,59.34
2023-06-11T08:47:39.340Z,57.78
2023-06-11T08:50:08.657Z,57.33
2023-06-11T08:52:36.600Z,56.49
2023-06-11T08:55:04.301Z,53.30
2023-06-11T08:57:33.271Z,53.19
2023-06-11T09:00:00.596Z,52.69
2023-06-11T09:02:28.562Z,52.53
2023-06-11T09:04:58.534Z,53.61
2023-06-11T09:07:26.184Z,52.67
2023-06-11T09:10:03.899Z,55.20
2023-06-11T09:12:31.279Z,54.17
2023-06-11T09:15:00.048Z,53.03
2023-06-11T09:17:34.367Z,52.91
2023-06-11T09:20:04.622Z,52.74
2023-06-11T09:22:32.371Z,52.50
2023-06-11T09:25:03.939Z,52.40
2023-06-11T09:27:31.382Z,51.79
2023-06-11T09:30:09.502Z,51.95
2023-06-11T09:32:40.489Z,52.50
2023-06-11T09:35:09.409Z,52.66
2023-06-11T09:37:40.906Z,53.61
2023-06-11T09:40:11.519Z,54.25
2023-06-11T09:42:39.489Z,54.83
2023-06-11T09:45:12.620Z,53.80
2023-06-11T09:47:40.712Z,51.81
2023-06-11T09:50:09.975Z,52.75
2023-06-11T09:52:39.004Z,52.72
2023-06-11T09:55:07.696Z,51.84
2023-06-11T09:57:36.408Z,51.64
2023-06-11T10:00:04.510Z,50.70
2023-06-11T10:02:33.458Z,52.17
2023-06-11T10:05:01.149Z,52.31
2023-06-11T10:07:31.166Z,50.22
2023-06-11T10:09:59.663Z,49.50
2023-06-11T10:12:30.716Z,48.38
2023-06-11T10:14:58.042Z,49.46
2023-06-11T10:17:25.508Z,48.97
2023-06-11T10:19:54.548Z,47.78
2023-06-11T10:22:22.955Z,47.80
2023-06-11T10:25:00.448Z,48.81
2023-06-11T10:27:37.644Z,48.65
2023-06-11T10:30:07.274Z,47.66
2023-06-11T10:32:34.769Z,46.84
2023-06-11T10:35:04.670Z,47.64
2023-06-11T10:37:33.174Z,48.14
2023-06-11T10:40:00.767Z,47.41
2023-06-11T10:42:34.740Z,47.83
2023-06-11T10:45:07.093Z,48.26
2023-06-11T10:47:42.498Z,48.41
2023-06-11T10:50:13.491Z,47.77
2023-06-11T10:52:49.217Z,45.09
2023-06-11T10:55:17.088Z,47.14
2023-06-11T10:57:44.769Z,47.29
2023-06-11T11:00:13.206Z,47.47
2023-06-11T11:02:40.922Z,48.97
2023-06-11T11:05:10.070Z,48.63
2023-06-11T11:07:39.827Z,48.40
2023-06-11T11:10:08.486Z,46.23
2023-06-11T11:12:37.952Z,46.37
2023-06-11T11:15:06.561Z,45.71
2023-06-11T11:17:34.080Z,44.63
2023-06-11T11:20:01.581Z,44.97
2023-06-11T11:22:29.419Z,43.59
2023-06-11T11:25:01.765Z,42.14
2023-06-11T11:27:29.113Z,43.39
2023-06-11T11:29:57.100Z,43.71
2023-06-11T11:32:28.732Z,43.43
2023-06-11T11:34:57.765Z,44.83
2023-06-11T11:37:25.080Z,45.16
2023-06-11T11:39:53.546Z,45.17
2023-06-11T11:42:23.349Z,44.71
2023-06-11T11:44:54.515Z,45.01
2023-06-11T11:47:23.041Z,43.86
2023-06-11T11:49:54.612Z,43.71
2023-06-11T11:52:22.350Z,42.97
2023-06-11T11:54:50.074Z,43.88
2023-06-11T11:57:19.974Z,45.14
2023-06-11T11:59:52.240Z,45.11
2023-06-11T12:02:19.614Z,45.94
2023-06-11T12:04:49.143Z,45.04
2023-06-11T12:07:18.545Z,46.26
2023-06-11T12:09:46.060Z,43.40
2023-06-11T12:12:13.574Z,43.04
2023-06-11T12:14:41.012Z,43.96
2023-06-11T12:17:09.903Z,44.85
2023-06-11T12:19:37.454Z,44.64
2023-06-11T12:22:05.506Z,44.30
2023-06-11T12:24:33.294Z,43.62
2023-06-11T12:27:03.207Z,44.56
2023-06-11T12:29:32.905Z,44.55
2023-06-11T12:32:00.310Z,45.19
2023-06-11T12:34:29.168Z,44.65
2023-06-11T12:36:56.527Z,45.17
2023-06-11T12:39:23.836Z,45.48
2023-06-11T12:41:51.158Z,45.52
2023-06-11T12:44:18.508Z,45.29
2023-06-11T12:46:45.948Z,45.00
2023-06-11T12:49:13.488Z,45.35
2023-06-11T12:51:42.329Z,46.50
2023-06-11T12:54:09.631Z,46.48
2023-06-11T12:56:37.155Z,46.62
2023-06-11T12:59:04.561Z,47.67
2023-06-11T13:01:31.939Z,47.44
2023-06-11T13:03:59.262Z,46.53
2023-06-11T13:06:26.723Z,46.08
2023-06-11T13:08:55.483Z,48.04
2023-06-11T13:11:22.880Z,46.95
2023-06-11T13:13:50.437Z,46.99
2023-06-11T13:16:17.823Z,46.07
2023-06-11T13:18:45.185Z,47.05
2023-06-11T13:21:12.806Z,47.07
2023-06-11T13:23:40.365Z,46.88
2023-06-11T13:26:09.346Z,47.41
2023-06-11T13:28:36.876Z,49.01
2023-06-11T13:31:04.518Z,49.24
2023-06-11T13:33:33.624Z,48.25
2023-06-11T13:36:01.013Z,47.99
2023-06-11T13:38:28.420Z,48.22
2023-06-11T13:40:56.004Z,48.53
2023-06-11T13:43:24.836Z,48.24
2023-06-11T13:45:52.229Z,48.49
2023-06-11T13:48:20.695Z,48.15
2023-06-11T13:50:49.136Z,47.29
2023-06-11T13:53:16.683Z,47.26
2023-06-11T13:55:44.424Z,46.41
2023-06-11T13:58:12.449Z,46.15
2023-06-11T14:00:41.519Z,46.33
2023-06-11T14:03:09.754Z,46.90
2023-06-11T14:05:37.679Z,48.07
2023-06-11T14:08:05.595Z,47.75
2023-06-11T14:10:33.167Z,47.24
2023-06-11T14:13:00.633Z,47.04
2023-06-11T14:15:28.078Z,46.46
2023-06-11T14:17:57.605Z,46.55
2023-06-11T14:20:25.018Z,46.68
2023-06-11T14:22:52.406Z,46.70
2023-06-11T14:25:20.081Z,45.53
2023-06-11T14:27:47.622Z,49.11
2023-06-11T14:30:15.194Z,48.91
2023-06-11T14:32:42.837Z,48.48
2023-06-11T14:35:11.840Z,48.54
2023-06-11T14:37:39.377Z,48.90
2023-06-11T14:40:08.218Z,49.69
2023-06-11T14:42:35.545Z,48.64
2023-06-11T14:45:03.223Z,48.23
2023-06-11T14:47:30.604Z,49.47
2023-06-11T14:49:57.927Z,48.95
2023-06-11T14:52:26.635Z,48.31
2023-06-11T14:54:53.992Z,49.12
2023-06-11T14:57:23.763Z,48.76
2023-06-11T14:59:53.573Z,49.20
2023-06-11T15:02:21.091Z,50.34
2023-06-11T15:04:48.512Z,50.64
2023-06-11T15:07:33.287Z,51.34
2023-06-11T15:10:04.106Z,50.61
2023-06-11T15:12:31.591Z,50.44
2023-06-11T15:14:58.961Z,48.76
2023-06-11T15:17:26.363Z,48.54
2023-06-11T15:19:53.922Z,48.02
2023-06-11T15:22:21.329Z,48.21
2023-06-11T15:24:48.686Z,47.95
2023-06-11T15:27:17.449Z,45.21
2023-06-11T15:29:45.197Z,45.11
2023-06-11T15:32:14.311Z,45.34
2023-06-11T15:34:41.667Z,43.89
2023-06-11T15:37:09.163Z,43.73
2023-06-11T15:39:36.519Z,43.82
2023-06-11T15:42:04.497Z,45.11
2023-06-11T15:44:33.288Z,44.93
2023-06-11T15:47:00.696Z,45.20
2023-06-11T15:49:28.086Z,45.79
2023-06-11T15:51:55.415Z,44.20
2023-06-11T15:54:22.824Z,45.08
2023-06-11T15:56:50.232Z,45.67
2023-06-11T15:59:17.634Z,46.59
2023-06-11T16:01:46.395Z,47.42
2023-06-11T16:04:14.037Z,46.42
2023-06-11T16:06:41.584Z,46.57
2023-06-11T16:09:08.977Z,45.79
2023-06-11T16:11:36.310Z,46.03
2023-06-11T16:14:04.046Z,45.92
2023-06-11T16:16:31.539Z,45.98
2023-06-11T16:19:00.414Z,45.81
2023-06-11T16:21:27.984Z,45.95
2023-06-11T16:23:55.309Z,46.64
2023-06-11T16:26:22.750Z,48.35
2023-06-11T16:28:50.367Z,47.65
2023-06-11T16:31:17.900Z,47.43
2023-06-11T16:33:57.461Z,47.48
2023-06-11T16:36:28.168Z,46.09
2023-06-11T16:38:55.694Z,46.77
2023-06-11T16:41:23.155Z,46.36
2023-06-11T16:43:50.997Z,46.66
2023-06-11T16:46:19.073Z,47.50
2023-06-11T16:48:46.856Z,47.21
2023-06-11T16:51:14.747Z,48.29
2023-06-11T16:53:43.418Z,47.79
2023-06-11T16:56:10.785Z,47.80
2023-06-11T16:58:38.284Z,48.19
2023-06-11T17:01:05.695Z,48.99
2023-06-11T17:03:34.083Z,49.70
2023-06-11T17:06:01.838Z,49.52
2023-06-11T17:08:29.262Z,48.72
2023-06-11T17:10:58.081Z,48.75
2023-06-11T17:13:25.441Z,48.14
2023-06-11T17:15:52.798Z,47.69
2023-06-11T17:18:20.266Z,48.08
2023-06-11T17:20:47.716Z,48.46
2023-06-11T17:23:15.097Z,48.46
2023-06-11T17:25:42.514Z,49.12
2023-06-11T17:28:11.408Z,49.68
2023-06-11T17:30:38.857Z,50.03
2023-06-11T17:33:06.235Z,49.77
2023-06-11T17:35:33.837Z,50.37
2023-06-11T17:38:01.198Z,50.19
2023-06-11T17:40:28.738Z,50.46
2023-06-11T17:42:56.793Z,51.02
2023-06-11T17:45:25.985Z,51.22
2023-06-11T17:47:53.493Z,49.84
2023-06-11T17:50:20.999Z,50.23
2023-06-11T17:52:48.386Z,50.86
2023-06-11T17:55:15.831Z,51.43
2023-06-11T17:57:44.507Z,50.39
2023-06-11T18:00:13.394Z,51.01
2023-06-11T18:02:42.333Z,51.83
2023-06-11T18:05:10.873Z,51.70
2023-06-11T18:07:38.538Z,51.69
2023-06-11T18:10:07.071Z,52.50
2023-06-11T18:12:34.564Z,52.81
2023-06-11T18:15:10.872Z,54.20
2023-06-11T18:17:50.764Z,54.10
2023-06-11T18:20:18.206Z,54.62
2023-06-11T18:22:45.558Z,54.82
2023-06-11T18:25:13.053Z,54.44
2023-06-11T18:27:40.706Z,55.29
2023-06-11T18:30:09.149Z,55.58
2023-06-11T18:32:36.715Z,55.51
2023-06-11T18:35:06.460Z,55.30
2023-06-11T18:37:33.965Z,55.46
2023-06-11T18:40:01.783Z,55.08
2023-06-11T18:42:29.177Z,55.74
2023-06-11T18:44:56.512Z,56.20
2023-06-11T18:47:24.006Z,55.95
2023-06-11T18:49:51.401Z,56.04
2023-06-11T18:52:20.183Z,56.13
2023-06-11T18:54:47.531Z,57.02
2023-06-11T18:57:15.105Z,57.55
2023-06-11T18:59:42.524Z,58.09
2023-06-11T19:02:09.979Z,58.59
2023-06-11T19:04:37.338Z,59.81
2023-06-11T19:07:05.099Z,59.58
2023-06-11T19:09:34.049Z,59.54
2023-06-11T19:12:01.678Z,58.67
2023-06-11T19:14:29.037Z,58.54
2023-06-11T19:16:56.409Z,58.60
2023-06-11T19:19:23.896Z,58.13
2023-06-11T19:21:51.357Z,58.08
2023-06-11T19:24:18.850Z,58.91
2023-06-11T19:26:47.869Z,59.58
2023-06-11T19:29:15.423Z,59.84
2023-06-11T19:31:42.877Z,59.90
2023-06-11T19:34:10.341Z,60.82
2023-06-11T19:36:37.727Z,61.48
2023-06-11T19:39:05.338Z,61.21
2023-06-11T19:41:32.978Z,60.82
2023-06-11T19:44:01.725Z,60.02
2023-06-11T19:46:31.586Z,60.57
2023-06-11T19:49:00.628Z,58.78
2023-06-11T19:51:27.937Z,58.47
2023-06-11T19:53:55.460Z,56.95
2023-06-11T19:56:22.849Z,57.24
2023-06-11T19:58:50.305Z,57.60
2023-06-11T20:01:19.316Z,57.19
2023-06-11T20:03:46.947Z,57.59
2023-06-11T20:06:14.484Z,57.92
2023-06-11T20:08:41.856Z,57.02
2023-06-11T20:11:09.358Z,57.92
2023-06-11T20:13:36.838Z,57.10
2023-06-11T20:16:04.681Z,57.57
2023-06-11T20:18:34.363Z,56.99
2023-06-11T20:21:01.894Z,57.35
2023-06-11T20:23:30.528Z,56.24
2023-06-11T20:25:57.892Z,57.47
2023-06-11T20:28:25.517Z,58.17
2023-06-11T20:30:52.971Z,58.74
2023-06-11T20:33:20.440Z,59.45
2023-06-11T20:35:49.570Z,59.01
2023-06-11T20:38:16.898Z,59.15
2023-06-11T20:40:44.229Z,59.48
2023-06-11T20:43:11.784Z,59.66
2023-06-11T20:45:39.317Z,60.12
2023-06-11T20:48:07.384Z,60.55
2023-06-11T20:50:34.935Z,61.06
2023-06-11T20:53:16.633Z,63.97
2023-06-11T20:55:54.831Z,63.25
2023-06-11T20:58:22.177Z,63.92
2023-06-11T21:00:49.685Z,63.61
2023-06-11T21:03:17.047Z,62.97
2023-06-11T21:05:44.637Z,62.46
2023-06-11T21:08:13.373Z,62.58
2023-06-11T21:10:40.773Z,61.98
2023-06-11T21:13:08.148Z,62.01
2023-06-11T21:15:35.741Z,61.55
2023-06-11T21:18:03.133Z,61.08
2023-06-11T21:20:30.751Z,61.05
2023-06-11T21:22:58.306Z,60.75
2023-06-11T21:25:27.138Z,60.80
2023-06-11T21:27:54.530Z,60.71
2023-06-11T21:30:21.993Z,60.17
2023-06-11T21:32:49.416Z,60.66
2023-06-11T21:35:17.080Z,60.88
2023-06-11T21:37:44.436Z,60.62
2023-06-11T21:40:12.918Z,61.10
2023-06-11T21:42:42.041Z,61.55
2023-06-11T21:45:10.302Z,61.11
2023-06-11T21:47:37.786Z,61.81
2023-06-11T21:50:06.199Z,61.83
2023-06-11T21:52:33.645Z,61.48
2023-06-11T21:55:01.121Z,61.71
2023-06-11T21:57:29.601Z,61.63
2023-06-11T21:59:58.322Z,61.51
2023-06-11T22:02:25.773Z,61.86
2023-06-11T22:04:53.135Z,61.62
2023-06-11T22:07:20.613Z,62.24
2023-06-11T22:09:47.989Z,61.83
2023-06-11T22:12:15.669Z,62.68
2023-06-11T22:14:43.198Z,63.54
2023-06-11T22:17:12.016Z,63.70
2023-06-11T22:19:39.381Z,63.07
2023-06-11T22:22:06.912Z,62.83
2023-06-11T22:24:34.604Z,62.96
2023-06-11T22:27:02.094Z,62.89
2023-06-11T22:29:29.557Z,63.24
2023-06-11T22:31:56.989Z,63.76
2023-06-11T22:34:25.781Z,64.31
2023-06-11T22:36:53.158Z,64.86
2023-06-11T22:39:20.628Z,65.35
2023-06-11T22:41:47.938Z,65.08
2023-06-11T22:44:15.531Z,64.95
2023-06-11T22:46:43.011Z,64.72
2023-06-11T22:49:10.598Z,64.29
2023-06-11T22:51:39.422Z,64.05
2023-06-11T22:54:06.991Z,64.61
2023-06-11T22:56:34.343Z,64.68
2023-06-11T22:59:01.784Z,65.00
2023-06-11T23:01:29.096Z,65.63
2023-06-11T23:03:56.659Z,65.69
2023-06-11T23:06:24.049Z,65.80
2023-06-11T23:08:52.818Z,65.77
2023-06-11T23:11:20.204Z,66.11
2023-06-11T23:13:47.524Z,66.23
2023-06-11T23:16:15.220Z,66.82
2023-06-11T23:18:42.812Z,67.03
2023-06-11T23:21:10.596Z,67.76
2023-06-11T23:23:38.040Z,67.70
2023-06-11T23:26:06.848Z,67.43
2023-06-11T23:28:34.187Z,66.96
2023-06-11T23:31:01.521Z,67.07
2023-06-11T23:33:28.882Z,67.34
2023-06-11T23:35:56.224Z,67.38
2023-06-11T23:38:23.577Z,67.71
2023-06-11T23:40:50.921Z,67.70
2023-06-11T23:43:19.693Z,67.82
2023-06-11T23:45:47.048Z,67.99
2023-06-11T23:48:14.662Z,68.47
2023-06-11T23:50:42.062Z,68.91
2023-06-11T23:53:10.144Z,69.58
2023-06-11T23:55:37.516Z,69.88
2023-06-11T23:58:19.741Z,70.04
